Time;durP1;ratioP1;P1;durP2;ratioP2;P2;SDS_P1;SDS_P2;PMS_P1;PMS_P2;Temp;Humidity;BMP_temperature;BMP_pressure;BME280_temperature;BME280_humidity;BME280_pressure;Samples;Min_cycle;Max_cycle;Signal;HPM_P1;HPM_P2
2024/01/18 00:01:38;;;;;;;;;;;0.20;99.90;;;;;;4984758;28;19941;-84
2024/01/18 00:04:04;;;;;;;;;;;0.10;99.90;;;;;;4983048;28;20432;-87
2024/01/18 00:06:31;;;;;;;;;;;0.10;99.90;;;;;;4985408;28;20007;-85
2024/01/18 00:09:06;;;;;;;;;;;0.20;99.90;;;;;;4986487;28;19957;-85
2024/01/18 00:11:39;;;;;;;;;;;0.20;99.90;;;;;;4991220;28;20172;-83
2024/01/18 00:14:05;;;;;;;;;;;0.30;99.90;;;;;;4992440;28;19952;-85
2024/01/18 00:16:33;;;;;;;;;;;0.30;99.90;;;;;;4995929;28;19950;-85
2024/01/18 00:18:58;;;;;;;;;;;0.20;99.90;;;;;;4982696;28;19941;-85
2024/01/18 00:21:24;;;;;;;;;;;0.10;99.90;;;;;;4977352;28;20288;-86
2024/01/18 00:23:49;;;;;;;;;;;0.10;99.90;;;;;;4973665;28;19978;-85
2024/01/18 00:26:15;;;;;;;;;;;0.00;99.90;;;;;;4983367;28;20009;-86
2024/01/18 00:28:46;;;;;;;;;;;0.10;99.90;;;;;;4977082;28;19962;-85
2024/01/18 00:31:15;;;;;;;;;;;0.00;99.90;;;;;;4986325;28;20013;-86
2024/01/18 00:33:43;;;;;;;;;;;0.10;99.90;;;;;;4980838;28;19981;-86
2024/01/18 00:36:09;;;;;;;;;;;0.10;99.90;;;;;;4981803;28;20001;-85
2024/01/18 00:38:37;;;;;;;;;;;0.00;99.90;;;;;;4980760;28;19955;-86
2024/01/18 00:41:03;;;;;;;;;;;-0.10;99.90;;;;;;4987429;28;19971;-86
2024/01/18 00:43:29;;;;;;;;;;;-0.10;99.90;;;;;;4981653;28;20472;-84
2024/01/18 00:45:54;;;;;;;;;;;-0.10;99.90;;;;;;4981645;28;19979;-84
2024/01/18 00:48:20;;;;;;;;;;;-0.20;99.90;;;;;;4981514;28;19967;-85
2024/01/18 00:50:45;;;;;;;;;;;-0.20;99.90;;;;;;4987555;28;19942;-84
2024/01/18 00:53:11;;;;;;;;;;;-0.30;99.90;;;;;;4986249;28;19948;-84
2024/01/18 00:55:37;;;;;;;;;;;-0.40;99.90;;;;;;4997169;28;19943;-84
2024/01/18 00:58:05;;;;;;;;;;;-0.50;99.90;;;;;;5006662;28;19946;-84
2024/01/18 01:00:30;;;;;;;;;;;-0.50;99.90;;;;;;5011377;28;20009;-85
2024/01/18 01:02:56;;;;;;;;;;;-0.60;99.90;;;;;;5008763;28;19939;-83
2024/01/18 01:05:22;;;;;;;;;;;-0.60;99.90;;;;;;5005486;28;19943;-85
2024/01/18 01:07:47;;;;;;;;;;;-0.50;99.90;;;;;;5004237;28;19971;-85
2024/01/18 01:10:13;;;;;;;;;;;-0.60;99.90;;;;;;4989419;28;20033;-83
2024/01/18 01:12:38;;;;;;;;;;;-0.70;99.90;;;;;;4983869;28;20562;-85
2024/01/18 01:15:04;;;;;;;;;;;-0.70;99.90;;;;;;4980782;28;20409;-85
2024/01/18 01:17:30;;;;;;;;;;;-0.80;99.90;;;;;;4978035;28;20589;-86
2024/01/18 01:19:56;;;;;;;;;;;-0.80;99.90;;;;;;4982147;28;20526;-86
2024/01/18 01:22:21;;;;;;;;;;;-0.90;99.90;;;;;;4984381;28;20063;-85
2024/01/18 01:24:47;;;;;;;;;;;-1.00;99.90;;;;;;4986153;28;19935;-83
2024/01/18 01:27:14;;;;;;;;;;;-1.00;99.90;;;;;;4989539;28;19948;-85
2024/01/18 01:29:40;;;;;;;;;;;-1.10;99.90;;;;;;4980266;28;20653;-84
2024/01/18 01:32:05;;;;;;;;;;;-1.00;99.90;;;;;;4980652;28;20405;-85
2024/01/18 01:34:31;;;;;;;;;;;-1.10;99.90;;;;;;4980952;28;20757;-84
2024/01/18 01:36:57;;;;;;;;;;;-1.20;99.90;;;;;;5011796;28;20411;-85
2024/01/18 01:39:22;;;;;;;;;;;-1.20;99.90;;;;;;5016804;28;20644;-85
2024/01/18 01:41:48;;;;;;;;;;;-1.20;99.90;;;;;;5018376;28;19938;-85
2024/01/18 01:44:13;;;;;;;;;;;-1.10;99.90;;;;;;5017003;28;20448;-86
2024/01/18 01:46:39;;;;;;;;;;;-1.10;99.90;;;;;;5028217;28;19946;-85
2024/01/18 01:49:05;;;;;;;;;;;-1.10;99.90;;;;;;5042662;28;19952;-85
2024/01/18 01:51:34;;;;;;;;;;;-1.20;99.90;;;;;;5043469;28;19934;-85
2024/01/18 01:54:00;;;;;;;;;;;-1.20;99.90;;;;;;5042141;28;19938;-85
2024/01/18 01:56:25;;;;;;;;;;;-1.30;99.90;;;;;;5044608;28;19958;-84
2024/01/18 01:58:51;;;;;;;;;;;-1.30;99.90;;;;;;5024681;28;19938;-85
2024/01/18 02:01:17;;;;;;;;;;;-1.30;99.90;;;;;;5021406;28;19936;-83
2024/01/18 02:03:43;;;;;;;;;;;-1.40;99.90;;;;;;5016161;28;19937;-83
2024/01/18 02:06:08;;;;;;;;;;;-1.40;99.90;;;;;;5019878;28;20488;-85
2024/01/18 02:08:35;;;;;;;;;;;-1.50;99.90;;;;;;5022386;28;19971;-84
2024/01/18 02:11:01;;;;;;;;;;;-1.60;99.90;;;;;;5015793;28;20420;-85
2024/01/18 02:13:27;;;;;;;;;;;-1.60;99.90;;;;;;5012910;28;19933;-85
2024/01/18 02:15:52;;;;;;;;;;;-1.70;99.90;;;;;;5015380;28;20448;-84
2024/01/18 02:18:18;;;;;;;;;;;-1.70;99.90;;;;;;5015480;28;20646;-85
2024/01/18 02:20:43;;;;;;;;;;;-1.80;99.90;;;;;;5015001;28;20026;-84
2024/01/18 02:23:09;;;;;;;;;;;-1.80;99.90;;;;;;5024773;28;20326;-85
2024/01/18 02:25:35;;;;;;;;;;;-1.90;99.90;;;;;;5016654;28;19936;-85
2024/01/18 02:28:01;;;;;;;;;;;-1.90;99.90;;;;;;5019730;28;20490;-84
2024/01/18 02:30:26;;;;;;;;;;;-1.90;99.90;;;;;;5023314;28;19940;-84
2024/01/18 02:32:52;;;;;;;;;;;-2.00;99.90;;;;;;5016309;28;19940;-83
2024/01/18 02:35:18;;;;;;;;;;;-1.90;99.90;;;;;;5014342;28;19961;-82
2024/01/18 02:37:43;;;;;;;;;;;-1.90;99.90;;;;;;5019670;28;19941;-84
2024/01/18 02:40:09;;;;;;;;;;;-1.90;99.90;;;;;;5019437;28;20031;-82
2024/01/18 02:42:34;;;;;;;;;;;-1.90;99.90;;;;;;5016000;28;20729;-82
2024/01/18 02:45:03;;;;;;;;;;;-1.90;99.90;;;;;;5019196;28;19945;-83
2024/01/18 02:47:29;;;;;;;;;;;-1.90;99.90;;;;;;5018577;28;20520;-82
2024/01/18 02:49:55;;;;;;;;;;;-1.90;99.90;;;;;;5016108;28;20529;-83
2024/01/18 02:52:20;;;;;;;;;;;-1.90;99.90;;;;;;5020131;28;19933;-82
2024/01/18 02:54:46;;;;;;;;;;;-2.00;99.90;;;;;;5013456;28;19940;-84
2024/01/18 02:57:11;;;;;;;;;;;-2.00;99.90;;;;;;5021934;28;20041;-84
2024/01/18 02:59:37;;;;;;;;;;;-2.00;99.90;;;;;;5018704;28;19936;-84
2024/01/18 03:02:02;;;;;;;;;;;-2.10;99.90;;;;;;5032710;28;19937;-83
2024/01/18 03:04:28;;;;;;;;;;;-2.10;99.90;;;;;;5046415;28;19946;-83
2024/01/18 03:06:54;;;;;;;;;;;-2.10;99.90;;;;;;5045138;28;20287;-82
2024/01/18 03:09:19;;;;;;;;;;;-2.10;99.90;;;;;;5044627;28;19996;-83
2024/01/18 03:11:45;;;;;;;;;;;-2.10;99.90;;;;;;5040983;28;19946;-83
2024/01/18 03:14:11;;;;;;;;;;;-2.10;99.90;;;;;;5020692;28;20053;-83
2024/01/18 03:16:42;;;;;;;;;;;-2.20;99.90;;;;;;5023385;28;20458;-83
2024/01/18 03:19:10;;;;;;;;;;;-2.20;99.90;;;;;;5023231;28;19942;-83
2024/01/18 03:21:35;;;;;;;;;;;-2.20;99.90;;;;;;5024501;28;19932;-82
2024/01/18 03:24:01;;;;;;;;;;;-2.20;99.90;;;;;;5028991;28;19946;-83
2024/01/18 03:26:26;;;;;;;;;;;-2.20;99.90;;;;;;5026692;28;19955;-82
2024/01/18 03:28:52;;;;;;;;;;;-2.20;99.90;;;;;;5043858;28;19961;-82
2024/01/18 03:31:17;;;;;;;;;;;-2.20;99.90;;;;;;5038297;28;20384;-82
2024/01/18 03:33:43;;;;;;;;;;;-2.20;99.90;;;;;;5024790;28;19931;-83
2024/01/18 03:36:10;;;;;;;;;;;-2.20;99.90;;;;;;5023701;28;20536;-83
2024/01/18 03:38:35;;;;;;;;;;;-2.30;99.90;;;;;;5021674;28;19936;-83
2024/01/18 03:41:01;;;;;;;;;;;-2.30;99.90;;;;;;5019372;28;20510;-82
2024/01/18 03:43:26;;;;;;;;;;;-2.30;99.90;;;;;;5017885;28;20026;-82
2024/01/18 03:45:52;;;;;;;;;;;-2.30;99.90;;;;;;5022701;28;19948;-82
2024/01/18 03:48:17;;;;;;;;;;;-2.30;99.90;;;;;;5021567;28;19970;-82
2024/01/18 03:50:43;;;;;;;;;;;-2.30;99.90;;;;;;5015394;28;20303;-82
2024/01/18 03:53:12;;;;;;;;;;;-2.30;99.90;;;;;;5028846;28;19951;-82
2024/01/18 03:55:37;;;;;;;;;;;-2.40;99.90;;;;;;5024588;28;19967;-82
2024/01/18 03:58:03;;;;;;;;;;;-2.30;99.90;;;;;;5023042;28;19947;-82
2024/01/18 04:00:29;;;;;;;;;;;-2.30;99.90;;;;;;5039561;28;19937;-83
2024/01/18 04:02:54;;;;;;;;;;;-2.40;99.90;;;;;;5048364;28;19960;-82
2024/01/18 04:05:20;;;;;;;;;;;-2.40;99.90;;;;;;5050307;28;19928;-82
2024/01/18 04:07:45;;;;;;;;;;;-2.40;99.90;;;;;;5049948;28;19973;-82
2024/01/18 04:10:11;;;;;;;;;;;-2.40;99.90;;;;;;5035415;28;19946;-82
2024/01/18 04:12:37;;;;;;;;;;;-2.50;99.90;;;;;;5019520;28;19936;-82
2024/01/18 04:15:02;;;;;;;;;;;-2.50;99.90;;;;;;5019781;28;19937;-82
2024/01/18 04:17:28;;;;;;;;;;;-2.50;99.90;;;;;;5020945;28;20002;-82
2024/01/18 04:19:53;;;;;;;;;;;-2.50;99.90;;;;;;5022994;28;19943;-82
2024/01/18 04:22:22;;;;;;;;;;;-2.60;99.90;;;;;;5023962;28;19942;-82
2024/01/18 04:24:48;;;;;;;;;;;-2.70;99.90;;;;;;5014457;28;19945;-82
2024/01/18 04:27:13;;;;;;;;;;;-2.70;99.90;;;;;;5021992;28;19940;-82
2024/01/18 04:29:38;;;;;;;;;;;-2.60;99.90;;;;;;5020102;28;20645;-82
2024/01/18 04:32:04;;;;;;;;;;;-2.70;99.90;;;;;;5020161;28;19942;-81
2024/01/18 04:34:30;;;;;;;;;;;-2.70;99.90;;;;;;5015332;28;20394;-81
2024/01/18 04:36:55;;;;;;;;;;;-2.70;99.90;;;;;;4979882;28;20325;-81
2024/01/18 04:39:21;;;;;;;;;;;-2.70;99.90;;;;;;4991887;28;20317;-81
2024/01/18 04:41:46;;;;;;;;;;;-2.70;99.90;;;;;;4983357;28;19939;-80
2024/01/18 04:44:12;;;;;;;;;;;-2.70;99.90;;;;;;4981433;28;19947;-82
2024/01/18 04:46:37;;;;;;;;;;;-2.70;99.90;;;;;;4988382;28;20052;-81
2024/01/18 04:49:03;;;;;;;;;;;-2.80;99.90;;;;;;4989620;28;19961;-81
2024/01/18 04:51:28;;;;;;;;;;;-2.80;99.90;;;;;;4983101;28;20029;-81
2024/01/18 04:53:54;;;;;;;;;;;-2.80;99.90;;;;;;4984028;28;19941;-80
2024/01/18 04:56:19;;;;;;;;;;;-3.00;99.90;;;;;;4975861;28;19956;-81
2024/01/18 04:58:45;;;;;;;;;;;-3.00;99.90;;;;;;4978408;28;19938;-81
2024/01/18 05:01:10;;;;;;;;;;;-2.90;99.90;;;;;;4977867;28;19944;-81
2024/01/18 05:03:36;;;;;;;;;;;-2.90;99.90;;;;;;4979920;28;19998;-81
2024/01/18 05:06:01;;;;;;;;;;;-2.90;99.90;;;;;;4981558;28;19974;-81
2024/01/18 05:08:27;;;;;;;;;;;-2.90;99.90;;;;;;4993895;28;19965;-81
2024/01/18 05:10:53;;;;;;;;;;;-2.90;99.90;;;;;;5008176;28;19969;-80
2024/01/18 05:13:20;;;;;;;;;;;-3.10;99.90;;;;;;5002102;28;19922;-81
2024/01/18 05:15:46;;;;;;;;;;;-3.10;99.90;;;;;;5004966;28;20026;-81
2024/01/18 05:18:11;;;;;;;;;;;-3.10;99.90;;;;;;4998063;28;19973;-80
2024/01/18 05:20:39;;;;;;;;;;;-3.20;99.90;;;;;;4980555;28;19970;-80
2024/01/18 05:23:06;;;;;;;;;;;-3.30;99.90;;;;;;4976936;28;19930;-79
2024/01/18 05:25:32;;;;;;;;;;;-3.30;99.90;;;;;;4976325;28;19952;-81
2024/01/18 05:27:59;;;;;;;;;;;-3.30;99.90;;;;;;4973216;28;19964;-81
2024/01/18 05:30:24;;;;;;;;;;;-3.30;99.90;;;;;;4977672;28;19947;-80
2024/01/18 05:32:50;;;;;;;;;;;-3.40;99.90;;;;;;4981192;28;20444;-79
2024/01/18 05:35:15;;;;;;;;;;;-3.40;99.90;;;;;;4977352;28;21298;-79
2024/01/18 05:37:41;;;;;;;;;;;-3.30;99.90;;;;;;4979419;28;19926;-79
2024/01/18 05:40:07;;;;;;;;;;;-3.30;99.90;;;;;;4983976;28;19937;-80
2024/01/18 05:42:32;;;;;;;;;;;-3.30;99.90;;;;;;4980154;28;20493;-80
2024/01/18 05:44:58;;;;;;;;;;;-3.30;99.90;;;;;;4981634;28;19947;-81
2024/01/18 05:47:24;;;;;;;;;;;-3.20;99.90;;;;;;4982318;28;19955;-80
2024/01/18 05:49:49;;;;;;;;;;;-3.20;99.90;;;;;;4986025;28;20410;-80
2024/01/18 05:52:15;;;;;;;;;;;-3.20;99.90;;;;;;4983818;28;19984;-80
2024/01/18 05:54:42;;;;;;;;;;;-3.20;99.90;;;;;;4980864;28;20024;-80
2024/01/18 05:57:07;;;;;;;;;;;-3.20;99.90;;;;;;4976251;28;20013;-80
2024/01/18 05:59:33;;;;;;;;;;;-3.20;99.90;;;;;;4976638;28;19937;-81
2024/01/18 06:01:59;;;;;;;;;;;-3.20;99.90;;;;;;4976313;28;20401;-80
2024/01/18 06:04:24;;;;;;;;;;;-3.20;99.90;;;;;;4984317;28;20430;-81
2024/01/18 06:06:50;;;;;;;;;;;-3.30;99.90;;;;;;4981072;28;20432;-80
2024/01/18 06:09:16;;;;;;;;;;;-3.40;99.90;;;;;;4979631;28;19968;-80
2024/01/18 06:11:42;;;;;;;;;;;-3.40;99.90;;;;;;4975696;28;19950;-81
2024/01/18 06:14:08;;;;;;;;;;;-3.50;99.90;;;;;;4992505;28;19963;-80
2024/01/18 06:16:34;;;;;;;;;;;-3.50;99.90;;;;;;5000425;28;20020;-81
2024/01/18 06:18:59;;;;;;;;;;;-3.50;99.90;;;;;;5005517;28;19941;-81
2024/01/18 06:21:25;;;;;;;;;;;-3.50;99.90;;;;;;4998005;28;19928;-80
2024/01/18 06:23:51;;;;;;;;;;;-3.50;99.90;;;;;;4993404;28;20091;-80
2024/01/18 06:26:16;;;;;;;;;;;-3.60;99.90;;;;;;4979272;28;20038;-80
2024/01/18 06:28:42;;;;;;;;;;;-3.50;99.90;;;;;;4979292;28;19955;-81
2024/01/18 06:31:08;;;;;;;;;;;-3.50;99.90;;;;;;4984107;28;20340;-81
2024/01/18 06:33:34;;;;;;;;;;;-3.40;99.90;;;;;;4991842;28;19940;-79
2024/01/18 06:36:00;;;;;;;;;;;-3.40;99.90;;;;;;4985285;28;19970;-80
2024/01/18 06:38:26;;;;;;;;;;;-3.40;99.90;;;;;;4979852;28;19944;-80
2024/01/18 06:40:51;;;;;;;;;;;-3.40;99.90;;;;;;4978736;28;19944;-81
2024/01/18 06:43:17;;;;;;;;;;;-3.60;99.90;;;;;;4980403;28;19933;-81
2024/01/18 06:45:43;;;;;;;;;;;-3.70;99.90;;;;;;4986530;28;20013;-80
2024/01/18 06:48:09;;;;;;;;;;;-3.80;99.90;;;;;;4981884;28;19958;-80
2024/01/18 06:50:35;;;;;;;;;;;-3.90;99.90;;;;;;4983536;28;19935;-79
2024/01/18 06:53:02;;;;;;;;;;;-4.00;99.90;;;;;;4976366;28;19941;-80
2024/01/18 06:55:28;;;;;;;;;;;-3.90;99.90;;;;;;4986153;28;19942;-79
2024/01/18 06:57:54;;;;;;;;;;;-4.00;99.90;;;;;;4978002;28;19947;-81
2024/01/18 07:00:19;;;;;;;;;;;-4.20;99.90;;;;;;4981342;28;20074;-79
2024/01/18 07:02:46;;;;;;;;;;;-4.30;99.90;;;;;;4978875;28;20291;-80
2024/01/18 07:05:12;;;;;;;;;;;-4.50;99.90;;;;;;4978101;28;20347;-80
2024/01/18 07:07:37;;;;;;;;;;;-4.50;99.90;;;;;;4986904;28;19989;-80
2024/01/18 07:10:04;;;;;;;;;;;-4.50;99.90;;;;;;4983247;28;19939;-80
2024/01/18 07:12:29;;;;;;;;;;;-4.40;99.90;;;;;;4985389;28;20426;-80
2024/01/18 07:14:56;;;;;;;;;;;-4.40;99.90;;;;;;4992856;28;20026;-80
2024/01/18 07:17:22;;;;;;;;;;;-4.50;99.90;;;;;;5008289;28;19944;-80
2024/01/18 07:19:47;;;;;;;;;;;-4.70;99.90;;;;;;5006855;28;19990;-80
2024/01/18 07:22:13;;;;;;;;;;;-4.60;99.90;;;;;;5006887;28;19981;-80
2024/01/18 07:24:38;;;;;;;;;;;-4.50;99.90;;;;;;4991219;28;19948;-78
2024/01/18 07:27:09;;;;;;;;;;;-4.50;99.90;;;;;;4986260;28;20046;-79
2024/01/18 07:29:35;;;;;;;;;;;-4.50;99.90;;;;;;4972988;28;19964;-79
2024/01/18 07:32:01;;;;;;;;;;;-4.40;99.90;;;;;;4980733;28;19938;-80
2024/01/18 07:34:27;;;;;;;;;;;-4.40;99.90;;;;;;4982448;28;19951;-79
2024/01/18 07:36:54;;;;;;;;;;;-4.40;99.90;;;;;;4981745;28;19967;-76
2024/01/18 07:39:19;;;;;;;;;;;-4.50;99.90;;;;;;4980474;28;19935;-81
2024/01/18 07:41:45;;;;;;;;;;;-4.50;99.90;;;;;;4984638;28;20421;-79
2024/01/18 07:44:11;;;;;;;;;;;-4.40;99.90;;;;;;4976883;28;20440;-81
2024/01/18 07:46:37;;;;;;;;;;;-4.30;99.90;;;;;;4976649;28;19957;-81
2024/01/18 07:49:03;;;;;;;;;;;-4.30;99.90;;;;;;4982883;28;20893;-81
2024/01/18 07:51:29;;;;;;;;;;;-4.20;99.90;;;;;;4981133;28;19933;-79
2024/01/18 07:53:54;;;;;;;;;;;-4.10;99.90;;;;;;4978362;28;19997;-80
2024/01/18 07:56:20;;;;;;;;;;;-4.00;99.90;;;;;;4975821;28;19984;-80
2024/01/18 07:58:45;;;;;;;;;;;-3.90;99.90;;;;;;4977251;28;20009;-80
2024/01/18 08:01:11;;;;;;;;;;;-3.70;99.90;;;;;;4975261;28;20396;-80
2024/01/18 08:03:37;;;;;;;;;;;-3.70;99.90;;;;;;4969583;28;20044;-82
2024/01/18 08:06:03;;;;;;;;;;;-3.70;99.90;;;;;;4977711;28;19950;-80
2024/01/18 08:08:28;;;;;;;;;;;-3.60;99.90;;;;;;4976505;28;19961;-80
2024/01/18 08:10:54;;;;;;;;;;;-3.60;99.90;;;;;;4967480;28;19930;-80
2024/01/18 08:13:20;;;;;;;;;;;-3.50;99.90;;;;;;4970993;28;20031;-80
2024/01/18 08:15:45;;;;;;;;;;;-3.50;99.90;;;;;;4971440;28;19956;-82
2024/01/18 08:18:11;;;;;;;;;;;-3.40;99.90;;;;;;4974583;28;20026;-80
2024/01/18 08:20:36;;;;;;;;;;;-3.30;99.90;;;;;;4972406;28;20040;-80
2024/01/18 08:23:02;;;;;;;;;;;-3.20;99.90;;;;;;4971370;28;19943;-80
2024/01/18 08:25:27;;;;;;;;;;;-3.20;99.90;;;;;;4977917;28;19995;-81
2024/01/18 08:27:56;;;;;;;;;;;-3.10;99.90;;;;;;4995644;28;19974;-79
2024/01/18 08:30:22;;;;;;;;;;;-3.00;99.90;;;;;;4990164;28;19937;-79
2024/01/18 08:32:47;;;;;;;;;;;-2.80;99.90;;;;;;4990387;28;19921;-79
2024/01/18 08:35:13;;;;;;;;;;;-2.80;99.90;;;;;;4979913;28;19972;-82
2024/01/18 08:37:38;;;;;;;;;;;-2.70;99.90;;;;;;4974333;28;20416;-81
2024/01/18 08:40:04;;;;;;;;;;;-2.60;99.90;;;;;;4972514;28;20399;-79
2024/01/18 08:42:30;;;;;;;;;;;-2.50;99.90;;;;;;4974129;28;19988;-79
2024/01/18 08:44:57;;;;;;;;;;;-2.50;99.90;;;;;;4971733;28;19945;-76
2024/01/18 08:47:23;;;;;;;;;;;-2.40;99.90;;;;;;4971236;28;20333;-79
2024/01/18 08:49:49;;;;;;;;;;;-2.30;99.90;;;;;;4973030;28;20365;-81
2024/01/18 08:52:14;;;;;;;;;;;-2.20;99.90;;;;;;4978242;28;20175;-82
2024/01/18 08:54:41;;;;;;;;;;;-2.10;99.90;;;;;;4965968;28;19966;-77
2024/01/18 08:57:07;;;;;;;;;;;-2.10;99.90;;;;;;4968407;28;20045;-79
2024/01/18 08:59:33;;;;;;;;;;;-2.00;99.90;;;;;;4970496;28;19932;-77
2024/01/18 09:01:59;;;;;;;;;;;-2.00;99.90;;;;;;4970024;28;19955;-85
2024/01/18 09:04:25;;;;;;;;;;;-1.80;99.90;;;;;;4979858;28;19939;-82
2024/01/18 09:06:51;;;;;;;;;;;-1.60;99.90;;;;;;4973499;28;20011;-77
2024/01/18 09:09:17;;;;;;;;;;;-1.50;99.90;;;;;;4963158;28;19966;-79
2024/01/18 09:11:42;;;;;;;;;;;-1.50;99.90;;;;;;4962444;28;20177;-81
2024/01/18 09:14:08;;;;;;;;;;;-1.40;99.90;;;;;;4957726;28;20009;-79
2024/01/18 09:16:33;;;;;;;;;;;-1.20;99.90;;;;;;4959408;28;19909;-79
2024/01/18 09:18:59;;;;;;;;;;;-1.20;99.90;;;;;;4960214;28;20118;-77
2024/01/18 09:21:25;;;;;;;;;;;-1.00;99.90;;;;;;4964904;28;20372;-81
2024/01/18 09:23:52;;;;;;;;;;;-0.90;99.90;;;;;;4977853;28;20310;-78
2024/01/18 09:26:17;;;;;;;;;;;-0.70;99.90;;;;;;4970214;28;19961;-77
2024/01/18 09:28:43;;;;;;;;;;;-0.50;99.90;;;;;;4976939;28;20169;-78
2024/01/18 09:31:09;;;;;;;;;;;-0.40;99.90;;;;;;4993120;28;20123;-79
2024/01/18 09:33:37;;;;;;;;;;;-0.30;99.90;;;;;;4991042;28;20737;-77
2024/01/18 09:36:04;;;;;;;;;;;0.00;97.10;;;;;;4993994;28;19971;-85
2024/01/18 09:38:30;;;;;;;;;;;1.60;91.80;;;;;;4971252;28;20013;-80
2024/01/18 09:41:00;;;;;;;;;;;3.90;63.30;;;;;;4966647;28;20489;-83
2024/01/18 09:43:26;;;;;;;;;;;6.40;53.70;;;;;;4969765;28;20416;-77
2024/01/18 09:45:52;;;;;;;;;;;8.40;44.70;;;;;;4961736;28;20216;-81
2024/01/18 09:48:17;;;;;;;;;;;9.80;42.00;;;;;;4964894;28;20442;-81
2024/01/18 09:50:44;;;;;;;;;;;11.40;37.60;;;;;;4967720;28;19947;-83
2024/01/18 09:53:11;;;;;;;;;;;11.80;36.90;;;;;;4973354;28;19938;-85
2024/01/18 09:55:36;;;;;;;;;;;12.70;33.50;;;;;;4966196;28;19951;-85
2024/01/18 09:58:03;;;;;;;;;;;12.60;33.30;;;;;;4962049;28;20206;-79
2024/01/18 10:00:30;;;;;;;;;;;13.00;34.30;;;;;;4969937;28;19936;-84
2024/01/18 10:02:56;;;;;;;;;;;13.70;33.80;;;;;;4972452;28;20382;-82
2024/01/18 10:05:33;;;;;;;;;;;14.10;31.40;;;;;;4974143;28;20013;-89
2024/01/18 10:07:59;;;;;;;;;;;14.70;31.50;;;;;;4975119;28;20030;-87
2024/01/18 10:10:24;;;;;;;;;;;15.10;31.90;;;;;;4975195;28;20396;-85
2024/01/18 10:12:59;;;;;;;;;;;15.80;29.70;;;;;;4974818;28;20014;-88
2024/01/18 10:15:32;;;;;;;;;;;16.70;29.00;;;;;;4962579;28;20065;-87
2024/01/18 10:18:04;;;;;;;;;;;17.00;28.80;;;;;;4972014;28;20627;-84
2024/01/18 10:20:32;;;;;;;;;;;17.40;28.00;;;;;;4970232;28;20562;-85
2024/01/18 10:22:58;;;;;;;;;;;17.30;26.40;;;;;;4971563;28;20028;-85
2024/01/18 10:25:26;;;;;;;;;;;17.20;28.10;;;;;;4971383;28;19946;-80
2024/01/18 10:27:52;;;;;;;;;;;17.50;27.70;;;;;;4978923;28;19997;-84
2024/01/18 10:30:18;;;;;;;;;;;18.30;27.20;;;;;;4980279;28;19972;-85
2024/01/18 10:32:45;;;;;;;;;;;18.80;26.30;;;;;;4998327;28;19944;-85
2024/01/18 10:35:28;;;;;;;;;;;19.10;26.20;;;;;;4992375;28;19976;-79
2024/01/18 10:38:03;;;;;;;;;;;19.30;25.90;;;;;;4992112;28;20087;-83
2024/01/18 10:40:30;;;;;;;;;;;19.00;26.20;;;;;;4969260;28;19997;-85
2024/01/18 10:42:55;;;;;;;;;;;18.20;25.70;;;;;;4970876;28;19945;-83
2024/01/18 10:45:21;;;;;;;;;;;17.70;27.20;;;;;;4970914;28;20013;-85
2024/01/18 10:47:47;;;;;;;;;;;17.40;27.80;;;;;;4968979;28;20016;-85
2024/01/18 10:50:12;;;;;;;;;;;16.90;28.20;;;;;;4969565;28;19958;-82
2024/01/18 10:52:39;;;;;;;;;;;17.40;27.70;;;;;;4969479;28;20389;-80
2024/01/18 10:55:06;;;;;;;;;;;17.50;28.00;;;;;;4975875;28;19954;-82
2024/01/18 10:57:32;;;;;;;;;;;16.80;28.60;;;;;;4972119;28;19936;-85
2024/01/18 11:00:06;;;;;;;;;;;14.70;28.90;;;;;;4979155;28;20000;-88
2024/01/18 11:02:40;;;;;;;;;;;14.60;31.10;;;;;;4982528;28;19965;-87
2024/01/18 11:05:07;;;;;;;;;;;14.30;30.60;;;;;;4974961;28;20033;-85
2024/01/18 11:07:32;;;;;;;;;;;16.20;30.00;;;;;;4968862;28;20063;-84
2024/01/18 11:09:58;;;;;;;;;;;17.80;28.50;;;;;;4974589;28;19945;-79
2024/01/18 11:12:26;;;;;;;;;;;17.20;27.10;;;;;;4963458;28;20072;-84
2024/01/18 11:14:51;;;;;;;;;;;16.70;29.10;;;;;;4968036;28;19944;-83
2024/01/18 11:17:17;;;;;;;;;;;15.80;29.30;;;;;;4977225;28;19953;-88
2024/01/18 11:19:44;;;;;;;;;;;16.30;29.40;;;;;;4991499;28;21101;-91
2024/01/18 11:22:10;;;;;;;;;;;17.30;28.50;;;;;;4972840;28;20051;-85
2024/01/18 11:24:37;;;;;;;;;;;17.90;28.10;;;;;;4968096;28;21681;-84
2024/01/18 11:27:23;;;;;;;;;;;18.70;27.40;;;;;;4974560;28;20039;-88
2024/01/18 11:29:49;;;;;;;;;;;18.70;27.20;;;;;;4980988;28;20004;-91
2024/01/18 11:32:17;;;;;;;;;;;17.10;27.60;;;;;;4974240;28;19940;-89
2024/01/18 11:34:45;;;;;;;;;;;17.30;28.40;;;;;;4980576;28;19950;-86
2024/01/18 11:37:12;;;;;;;;;;;17.60;28.00;;;;;;4993508;28;20029;-83
2024/01/18 11:39:52;;;;;;;;;;;17.20;28.40;;;;;;4997546;28;19951;-87
2024/01/18 11:42:18;;;;;;;;;;;18.30;28.00;;;;;;4999336;28;19950;-86
2024/01/18 11:45:00;;;;;;;;;;;19.20;26.90;;;;;;4997379;28;20111;-85
2024/01/18 11:47:29;;;;;;;;;;;17.00;27.50;;;;;;4996664;28;19972;-88
2024/01/18 11:50:01;;;;;;;;;;;14.50;31.20;;;;;;4991034;28;19962;-87
2024/01/18 11:52:27;;;;;;;;;;;14.20;31.10;;;;;;4978936;28;19949;-91
2024/01/18 11:54:55;;;;;;;;;;;15.00;32.80;;;;;;4979272;28;19973;-84
2024/01/18 11:57:22;;;;;;;;;;;14.80;32.10;;;;;;4975940;28;20067;-91
2024/01/18 12:00:03;;;;;;;;;;;15.20;30.80;;;;;;4973863;28;19949;-93
2024/01/18 12:02:42;;;;;;;;;;;14.80;31.80;;;;;;4976210;28;19984;-88
2024/01/18 12:05:08;;;;;;;;;;;15.00;30.90;;;;;;4980326;28;20948;-85
2024/01/18 12:07:34;;;;;;;;;;;13.80;32.80;;;;;;4973428;28;20018;-84
2024/01/18 12:10:00;;;;;;;;;;;13.10;32.50;;;;;;4986945;28;20425;-83
2024/01/18 12:12:27;;;;;;;;;;;13.40;35.50;;;;;;4971789;28;19946;-84
2024/01/18 12:14:53;;;;;;;;;;;15.30;32.70;;;;;;4950063;28;20385;-85
2024/01/18 12:17:18;;;;;;;;;;;15.90;30.40;;;;;;4945238;28;19953;-81
2024/01/18 12:19:47;;;;;;;;;;;16.90;30.70;;;;;;4951063;28;20404;-91
2024/01/18 12:22:19;;;;;;;;;;;18.20;29.20;;;;;;4954273;28;19937;-85
2024/01/18 12:24:48;;;;;;;;;;;18.80;28.60;;;;;;4942306;28;19977;-90
2024/01/18 12:27:15;;;;;;;;;;;19.70;27.00;;;;;;4949609;28;20475;-86
2024/01/18 12:29:41;;;;;;;;;;;19.90;26.80;;;;;;4958548;28;20018;-88
2024/01/18 12:32:08;;;;;;;;;;;20.30;26.70;;;;;;4988410;28;20036;-86
2024/01/18 12:34:34;;;;;;;;;;;18.60;28.10;;;;;;4999603;28;19927;-87
2024/01/18 12:37:00;;;;;;;;;;;19.20;27.90;;;;;;5008518;28;20043;-83
2024/01/18 12:39:26;;;;;;;;;;;17.70;27.50;;;;;;4989771;28;20308;-85
2024/01/18 12:41:52;;;;;;;;;;;16.00;30.80;;;;;;4988456;28;20371;-85
2024/01/18 12:44:25;;;;;;;;;;;15.00;33.80;;;;;;5054112;27;20429;-86
2024/01/18 12:46:51;;;;;;;;;;;15.60;31.60;;;;;;5011216;28;19948;-83
2024/01/18 12:49:17;;;;;;;;;;;14.10;32.00;;;;;;5026925;28;19936;-84
2024/01/18 12:51:46;;;;;;;;;;;12.60;35.30;;;;;;5020221;28;19945;-87
2024/01/18 12:54:12;;;;;;;;;;;14.10;36.50;;;;;;5024427;28;19937;-82
2024/01/18 12:56:40;;;;;;;;;;;15.10;33.90;;;;;;5018206;28;20066;-88
2024/01/18 12:59:09;;;;;;;;;;;13.60;34.10;;;;;;5017589;28;20739;-88
2024/01/18 13:01:35;;;;;;;;;;;12.30;39.40;;;;;;5009546;28;19978;-82
2024/01/18 13:04:21;;;;;;;;;;;13.70;37.30;;;;;;5019814;28;21386;-81
2024/01/18 13:06:47;;;;;;;;;;;12.50;36.10;;;;;;5019282;28;20492;-82
2024/01/18 13:09:13;;;;;;;;;;;12.20;39.30;;;;;;5022817;28;20331;-79
2024/01/18 13:11:39;;;;;;;;;;;12.80;37.50;;;;;;5017887;28;19941;-79
2024/01/18 13:14:06;;;;;;;;;;;14.70;37.30;;;;;;5016085;28;20106;-78
2024/01/18 13:16:33;;;;;;;;;;;16.50;33.60;;;;;;5031187;28;19958;-80
2024/01/18 13:19:00;;;;;;;;;;;17.30;31.30;;;;;;5022392;28;19936;-79
2024/01/18 13:21:25;;;;;;;;;;;18.40;30.30;;;;;;5025123;28;19944;-80
2024/01/18 13:23:51;;;;;;;;;;;16.20;30.40;;;;;;5025508;28;20031;-82
2024/01/18 13:26:16;;;;;;;;;;;15.70;31.40;;;;;;5011568;28;20002;-80
2024/01/18 13:28:42;;;;;;;;;;;16.20;33.30;;;;;;5010773;28;19973;-79
2024/01/18 13:31:09;;;;;;;;;;;17.10;31.40;;;;;;5020562;28;19949;-78
2024/01/18 13:33:35;;;;;;;;;;;17.30;31.60;;;;;;5015549;28;20302;-79
2024/01/18 13:36:00;;;;;;;;;;;15.60;30.70;;;;;;5014208;28;19975;-81
2024/01/18 13:38:26;;;;;;;;;;;14.70;33.90;;;;;;5008423;28;19951;-77
2024/01/18 13:40:53;;;;;;;;;;;13.80;34.70;;;;;;5015201;28;19957;-78
2024/01/18 13:43:19;;;;;;;;;;;13.70;39.00;;;;;;5017827;28;20196;-80
2024/01/18 13:45:44;;;;;;;;;;;16.00;35.40;;;;;;5044815;28;19966;-79
2024/01/18 13:48:10;;;;;;;;;;;18.00;32.50;;;;;;5045504;28;19970;-84
2024/01/18 13:50:36;;;;;;;;;;;18.00;30.00;;;;;;5053331;28;19950;-79
2024/01/18 13:53:01;;;;;;;;;;;17.10;30.40;;;;;;5035086;28;20006;-81
2024/01/18 13:55:27;;;;;;;;;;;17.40;31.10;;;;;;5020553;28;20440;-83
2024/01/18 13:57:52;;;;;;;;;;;15.70;30.80;;;;;;5010386;28;19951;-84
2024/01/18 14:00:18;;;;;;;;;;;15.80;35.00;;;;;;5028697;28;20302;-88
2024/01/18 14:02:44;;;;;;;;;;;16.40;34.90;;;;;;5032607;28;19978;-84
2024/01/18 14:05:09;;;;;;;;;;;18.20;32.40;;;;;;5036437;28;19933;-83
2024/01/18 14:07:35;;;;;;;;;;;15.80;32.30;;;;;;5018638;28;19960;-81
2024/01/18 14:10:01;;;;;;;;;;;16.20;32.70;;;;;;5006035;28;20025;-83
2024/01/18 14:12:26;;;;;;;;;;;17.60;32.20;;;;;;5017772;28;19943;-84
2024/01/18 14:14:52;;;;;;;;;;;16.40;33.30;;;;;;5010931;28;21262;-85